Time;durP1;ratioP1;P1;durP2;ratioP2;P2;SDS_P1;SDS_P2;PMS_P1;PMS_P2;Temp;Humidity;BMP_temperature;BMP_pressure;BME280_temperature;BME280_humidity;BME280_pressure;Samples;Min_cycle;Max_cycle;Signal;HPM_P1;HPM_P2
2023/04/11 00:02:13;;;;;;;4.18;2.25;;;;;;;11.95;96.30;100032.28;5146225;28;20034;-73
2023/04/11 00:04:43;;;;;;;3.88;2.25;;;;;;;11.90;97.97;100029.03;5151441;28;20026;-71
2023/04/11 00:07:14;;;;;;;4.88;2.38;;;;;;;11.85;99.56;100019.72;5147632;28;20081;-68
2023/04/11 00:09:44;;;;;;;4.13;2.15;;;;;;;11.75;100.00;100019.31;5145818;28;20052;-71
2023/04/11 00:12:14;;;;;;;3.67;2.10;;;;;;;11.69;100.00;100019.63;5146921;28;20018;-70
2023/04/11 00:14:47;;;;;;;4.18;2.35;;;;;;;11.50;100.00;100016.19;5150592;28;20105;-70
2023/04/11 00:17:18;;;;;;;4.22;2.33;;;;;;;11.49;100.00;100011.88;5147220;28;20019;-70
2023/04/11 00:19:52;;;;;;;3.85;2.40;;;;;;;11.41;100.00;100019.22;5148103;28;20077;-71
2023/04/11 00:22:23;;;;;;;4.72;2.70;;;;;;;11.27;100.00;100003.34;5148230;28;20098;-70
2023/04/11 00:24:53;;;;;;;5.05;2.78;;;;;;;11.20;100.00;99994.09;5150203;28;20026;-70
2023/04/11 00:27:24;;;;;;;5.10;2.40;;;;;;;11.15;100.00;99996.09;5148579;28;20084;-72
2023/04/11 00:29:56;;;;;;;4.78;2.30;;;;;;;11.08;100.00;99988.59;5148579;28;20034;-71
2023/04/11 00:32:27;;;;;;;4.47;2.58;;;;;;;11.09;100.00;99985.91;5149812;28;20053;-72
2023/04/11 00:34:58;;;;;;;5.50;2.72;;;;;;;11.13;100.00;99976.97;5149802;28;20054;-71
2023/04/11 00:37:28;;;;;;;5.35;2.55;;;;;;;11.19;100.00;99961.03;5146590;28;20420;-71
2023/04/11 00:39:58;;;;;;;4.22;2.58;;;;;;;11.05;100.00;99947.75;5144573;28;20023;-72
2023/04/11 00:42:28;;;;;;;4.05;2.33;;;;;;;11.05;100.00;99945.13;5125388;28;20547;-70
2023/04/11 00:44:59;;;;;;;4.78;2.33;;;;;;;10.97;100.00;99937.72;5147349;28;20543;-72
2023/04/11 00:47:32;;;;;;;4.65;2.53;;;;;;;10.90;100.00;99928.47;5131378;28;20082;-71
2023/04/11 00:50:02;;;;;;;3.88;2.30;;;;;;;10.85;100.00;99905.16;5142228;28;20571;-71
2023/04/11 00:52:35;;;;;;;4.63;2.15;;;;;;;10.96;100.00;99900.28;5145930;28;20030;-71
2023/04/11 00:55:06;;;;;;;4.38;2.28;;;;;;;10.82;100.00;99880.94;5146276;28;20049;-71
2023/04/11 00:57:37;;;;;;;5.60;2.50;;;;;;;10.68;100.00;99857.22;5149509;28;20030;-71
2023/04/11 01:00:10;;;;;;;5.10;2.55;;;;;;;10.53;100.00;99843.09;5147365;28;20034;-70
2023/04/11 01:02:43;;;;;;;5.07;2.63;;;;;;;10.47;100.00;99821.63;5150167;28;20058;-73
2023/04/11 01:05:15;;;;;;;4.90;2.40;;;;;;;10.35;100.00;99828.28;5182620;23;20062;-71
2023/04/11 01:07:48;;;;;;;5.18;2.60;;;;;;;10.47;100.00;99826.88;5169643;28;20026;-71
2023/04/11 01:10:20;;;;;;;7.30;3.25;;;;;;;10.35;100.00;99799.56;5166621;28;20096;-70
2023/04/11 01:12:51;;;;;;;4.28;2.33;;;;;;;10.30;100.00;99769.34;5164772;28;20115;-72
2023/04/11 01:15:22;;;;;;;4.53;2.13;;;;;;;10.34;100.00;99804.88;5162073;28;20493;-71
2023/04/11 01:17:54;;;;;;;4.80;2.30;;;;;;;10.35;100.00;99845.75;5162770;28;20103;-71
2023/04/11 01:20:25;;;;;;;3.95;2.10;;;;;;;10.39;100.00;99887.34;5164621;28;20048;-71
2023/04/11 01:22:57;;;;;;;5.03;2.53;;;;;;;10.42;100.00;99920.28;5162988;28;20527;-71
2023/04/11 01:25:28;;;;;;;3.90;2.35;;;;;;;10.45;100.00;99928.84;5160921;28;20026;-72
2023/04/11 01:27:58;;;;;;;4.88;2.45;;;;;;;10.47;100.00;99928.75;5160425;28;20026;-71
2023/04/11 01:30:28;;;;;;;5.03;2.67;;;;;;;10.51;100.00;99927.72;5164559;28;20042;-71
2023/04/11 01:32:59;;;;;;;4.75;2.60;;;;;;;10.54;100.00;99932.78;5161452;28;20460;-71
2023/04/11 01:35:29;;;;;;;3.40;2.15;;;;;;;10.61;100.00;99936.81;5155111;28;20030;-70
2023/04/11 01:37:59;;;;;;;5.05;2.30;;;;;;;10.64;100.00;99945.38;5159804;28;20396;-71
2023/04/11 01:40:31;;;;;;;5.22;2.90;;;;;;;10.56;100.00;99946.63;5144029;28;20034;-71
2023/04/11 01:43:02;;;;;;;3.75;2.13;;;;;;;10.61;100.00;99940.28;5160894;28;20049;-71
2023/04/11 01:45:32;;;;;;;4.40;2.28;;;;;;;10.61;100.00;99929.84;5159633;28;20061;-72
2023/04/11 01:48:07;;;;;;;5.40;2.10;;;;;;;10.60;100.00;99932.50;5160698;28;20089;-71
2023/04/11 01:50:37;;;;;;;4.03;2.00;;;;;;;10.55;100.00;99926.66;5147588;28;20018;-71
2023/04/11 01:53:07;;;;;;;3.67;1.92;;;;;;;10.68;100.00;99926.00;5165839;28;20048;-69
2023/04/11 01:55:37;;;;;;;3.67;2.17;;;;;;;10.61;100.00;99926.34;5170896;28;20052;-71
2023/04/11 01:58:08;;;;;;;4.10;1.92;;;;;;;10.53;100.00;99934.53;5157325;28;20038;-72
2023/04/11 02:00:38;;;;;;;3.72;2.13;;;;;;;10.46;100.00;99934.88;5170471;28;20096;-72
2023/04/11 02:03:08;;;;;;;4.65;2.30;;;;;;;10.44;100.00;99927.13;5169195;28;20049;-71
2023/04/11 02:05:39;;;;;;;6.00;2.33;;;;;;;10.45;100.00;99912.28;5147364;28;20030;-71
2023/04/11 02:08:10;;;;;;;3.92;2.20;;;;;;;10.45;100.00;99926.22;5163643;28;20560;-71
2023/04/11 02:10:40;;;;;;;3.95;1.98;;;;;;;10.39;100.00;99917.81;5144018;28;20022;-72
2023/04/11 02:13:10;;;;;;;4.15;2.25;;;;;;;10.34;100.00;99922.41;5167256;28;20121;-70
2023/04/11 02:15:40;;;;;;;4.30;2.17;;;;;;;10.37;100.00;99917.88;5172469;28;20033;-71
2023/04/11 02:18:11;;;;;;;4.45;2.25;;;;;;;10.31;100.00;99919.94;5167015;28;20069;-71
2023/04/11 02:20:41;;;;;;;4.43;1.90;;;;;;;10.25;100.00;99917.56;5172922;28;20033;-70
2023/04/11 02:23:11;;;;;;;3.47;1.75;;;;;;;10.23;100.00;99906.34;5160469;28;20060;-69
2023/04/11 02:25:42;;;;;;;3.35;1.80;;;;;;;10.22;100.00;99905.53;5168657;28;20041;-71
2023/04/11 02:28:12;;;;;;;2.83;1.65;;;;;;;10.27;100.00;99905.28;5168510;28;20037;-71
2023/04/11 02:30:43;;;;;;;2.88;1.55;;;;;;;10.17;100.00;99907.47;5152482;28;20041;-71
2023/04/11 02:33:13;;;;;;;2.83;1.58;;;;;;;10.05;100.00;99904.56;5162770;28;20485;-69
2023/04/11 02:35:45;;;;;;;2.88;1.40;;;;;;;10.08;100.00;99902.69;5156199;28;20077;-72
2023/04/11 02:38:15;;;;;;;2.17;1.25;;;;;;;10.02;100.00;99895.09;5157776;28;20528;-72
2023/04/11 02:40:46;;;;;;;1.80;1.00;;;;;;;10.10;100.00;99881.69;5156079;28;20041;-72
2023/04/11 02:43:16;;;;;;;3.63;1.40;;;;;;;10.00;100.00;99862.97;5161533;28;20372;-71
2023/04/11 02:45:47;;;;;;;2.08;1.13;;;;;;;10.03;100.00;99848.97;5161050;28;20075;-70
2023/04/11 02:48:17;;;;;;;2.70;1.50;;;;;;;10.09;100.00;99835.63;5157366;28;20547;-71
2023/04/11 02:50:47;;;;;;;2.28;1.30;;;;;;;10.06;100.00;99841.00;5163975;28;20041;-72
2023/04/11 02:53:18;;;;;;;5.28;1.30;;;;;;;9.99;100.00;99848.22;5142325;28;20085;-71
2023/04/11 02:55:48;;;;;;;1.90;1.08;;;;;;;10.09;100.00;99840.84;5169950;28;20050;-71
2023/04/11 02:58:24;;;;;;;3.55;1.10;;;;;;;9.94;100.00;99854.56;5166536;28;20034;-72
2023/04/11 03:00:55;;;;;;;4.35;1.00;;;;;;;9.99;100.00;99850.81;5172986;28;20030;-71
2023/04/11 03:03:26;;;;;;;2.17;1.08;;;;;;;9.90;100.00;99853.00;5137943;28;20033;-72
2023/04/11 03:05:57;;;;;;;1.85;1.10;;;;;;;9.90;100.00;99850.41;5164204;28;20034;-72
2023/04/11 03:08:27;;;;;;;2.00;1.02;;;;;;;9.82;100.00;99844.69;5171062;28;20504;-72
2023/04/11 03:10:57;;;;;;;2.17;1.00;;;;;;;9.87;100.00;99845.31;5167797;28;20034;-72
2023/04/11 03:13:28;;;;;;;1.40;0.70;;;;;;;9.85;100.00;99826.28;5153551;28;20030;-72
2023/04/11 03:15:58;;;;;;;1.88;1.00;;;;;;;9.81;100.00;99814.28;5162077;28;20030;-72
2023/04/11 03:18:29;;;;;;;1.95;0.73;;;;;;;9.70;100.00;99806.06;5159266;28;20041;-71
2023/04/11 03:20:59;;;;;;;2.17;1.00;;;;;;;9.71;100.00;99815.59;5143797;28;20468;-73
2023/04/11 03:23:30;;;;;;;1.40;0.90;;;;;;;9.66;100.00;99815.78;5164790;28;20034;-72
2023/04/11 03:26:01;;;;;;;1.63;0.80;;;;;;;9.55;100.00;99827.59;5151293;28;20026;-72
2023/04/11 03:28:32;;;;;;;1.38;0.80;;;;;;;9.53;100.00;99829.44;5162878;28;20917;-71
2023/04/11 03:31:02;;;;;;;1.52;0.73;;;;;;;9.51;100.00;99833.88;5164865;28;20542;-71
2023/04/11 03:33:33;;;;;;;1.33;0.80;;;;;;;9.33;100.00;99832.06;5170421;28;20032;-70
2023/04/11 03:36:04;;;;;;;1.45;0.68;;;;;;;9.32;100.00;99830.38;5164864;28;20022;-71
2023/04/11 03:38:34;;;;;;;1.77;0.80;;;;;;;9.33;100.00;99838.09;5165562;28;20030;-70
2023/04/11 03:41:05;;;;;;;2.35;0.70;;;;;;;9.30;100.00;99847.84;5163521;28;20034;-71
2023/04/11 03:43:35;;;;;;;2.15;0.65;;;;;;;9.31;100.00;99844.31;5166040;28;20038;-72
2023/04/11 03:46:05;;;;;;;3.13;0.93;;;;;;;9.27;100.00;99848.81;5156974;28;20044;-72
2023/04/11 03:48:36;;;;;;;2.05;0.80;;;;;;;9.27;100.00;99853.16;5161146;28;20600;-72
2023/04/11 03:51:07;;;;;;;2.25;0.70;;;;;;;9.32;100.00;99867.69;5155311;28;20026;-71
2023/04/11 03:53:37;;;;;;;1.80;0.73;;;;;;;9.29;100.00;99867.00;5149927;28;20087;-71
2023/04/11 03:56:08;;;;;;;1.55;0.80;;;;;;;9.37;100.00;99864.91;5170158;28;20431;-72
2023/04/11 03:58:38;;;;;;;1.65;0.88;;;;;;;9.36;100.00;99863.22;5170872;28;20034;-71
2023/04/11 04:01:09;;;;;;;2.90;0.98;;;;;;;9.36;100.00;99858.00;5137569;28;20440;-71
2023/04/11 04:03:39;;;;;;;3.97;1.30;;;;;;;9.32;100.00;99864.25;5168178;28;20034;-71
2023/04/11 04:06:10;;;;;;;1.58;0.75;;;;;;;9.39;100.00;99858.72;5160860;28;20125;-71
2023/04/11 04:08:40;;;;;;;3.47;1.00;;;;;;;9.35;100.00;99864.97;5165156;28;20028;-73
2023/04/11 04:11:10;;;;;;;2.00;0.90;;;;;;;9.39;100.00;99863.94;5163692;28;20081;-72
2023/04/11 04:13:41;;;;;;;2.92;0.90;;;;;;;9.46;100.00;99865.38;5162451;28;20027;-72
2023/04/11 04:16:11;;;;;;;1.85;0.70;;;;;;;9.48;100.00;99862.72;5157305;28;20113;-72
2023/04/11 04:18:41;;;;;;;2.33;0.80;;;;;;;9.53;100.00;99866.81;5161560;28;20019;-72
2023/04/11 04:21:12;;;;;;;2.92;1.00;;;;;;;9.49;100.00;99864.41;5141339;28;20019;-71
2023/04/11 04:23:48;;;;;;;3.15;0.88;;;;;;;9.58;100.00;99858.78;5163585;28;20036;-71
2023/04/11 04:26:23;;;;;;;5.00;0.80;;;;;;;9.57;100.00;99859.69;5168642;28;20121;-71
2023/04/11 04:28:56;;;;;;;2.27;0.77;;;;;;;9.65;100.00;99860.22;5162973;28;20475;-70
2023/04/11 04:31:28;;;;;;;2.05;0.85;;;;;;;9.65;100.00;99855.00;5167392;28;20919;-71
2023/04/11 04:34:07;;;;;;;1.58;0.40;;;;;;;9.69;100.00;99861.78;5166153;28;20470;-72
2023/04/11 04:36:48;;;;;;;2.15;0.60;;;;;;;9.69;100.00;99877.44;5167473;28;20399;-72
2023/04/11 04:39:18;;;;;;;4.13;0.90;;;;;;;9.79;100.00;99881.34;5160503;28;20114;-71
2023/04/11 04:41:48;;;;;;;2.40;0.45;;;;;;;9.73;100.00;99873.78;5169043;28;20414;-70
2023/04/11 04:44:19;;;;;;;2.55;0.80;;;;;;;9.75;100.00;99871.94;5163377;28;20154;-71
2023/04/11 04:46:56;;;;;;;4.90;0.98;;;;;;;9.81;100.00;99866.47;5168938;28;20038;-70
2023/04/11 04:49:26;;;;;;;5.75;1.30;;;;;;;9.89;100.00;99870.44;5155937;28;20023;-71
2023/04/11 04:51:56;;;;;;;4.70;1.65;;;;;;;9.99;100.00;99868.28;5168954;28;20049;-71
2023/04/11 04:54:27;;;;;;;2.95;1.10;;;;;;;9.95;100.00;99861.47;5164530;28;20204;-72
2023/04/11 04:56:57;;;;;;;5.85;1.13;;;;;;;10.02;100.00;99865.56;5165994;28;20077;-73
2023/04/11 04:59:28;;;;;;;7.57;1.40;;;;;;;9.99;100.00;99866.50;5164119;28;20069;-72
2023/04/11 05:01:58;;;;;;;4.05;1.15;;;;;;;10.09;100.00;99867.81;5164771;28;20030;-72
2023/04/11 05:04:29;;;;;;;2.67;0.90;;;;;;;10.02;100.00;99882.03;5145152;28;20061;-72
2023/04/11 05:06:59;;;;;;;3.03;0.90;;;;;;;9.96;100.00;99879.69;5166703;28;20049;-72
2023/04/11 05:09:30;;;;;;;4.72;1.05;;;;;;;10.05;100.00;99892.38;5152025;28;20058;-70
2023/04/11 05:12:00;;;;;;;3.85;0.75;;;;;;;10.17;100.00;99896.19;5137755;28;20030;-72
2023/04/11 05:14:30;;;;;;;2.53;0.82;;;;;;;10.14;100.00;99899.78;5164470;28;20040;-71
2023/04/11 05:17:00;;;;;;;5.35;1.08;;;;;;;10.13;100.00;99899.88;5163958;28;20435;-71
2023/04/11 05:19:31;;;;;;;2.30;1.05;;;;;;;10.13;100.00;99902.47;5165794;28;20093;-72
2023/04/11 05:22:02;;;;;;;1.27;0.80;;;;;;;10.07;100.00;99915.78;5164621;28;20393;-72
2023/04/11 05:24:32;;;;;;;4.25;1.00;;;;;;;10.06;100.00;99909.72;5141438;28;20152;-72
2023/04/11 05:27:02;;;;;;;5.63;1.40;;;;;;;10.10;100.00;99936.53;5130722;28;20048;-71
2023/04/11 05:29:33;;;;;;;3.58;1.30;;;;;;;9.96;100.00;99954.53;5163474;28;20032;-72
2023/04/11 05:32:03;;;;;;;2.30;0.77;;;;;;;9.69;100.00;99956.53;5157870;28;20030;-71
2023/04/11 05:34:50;;;;;;;1.92;0.70;;;;;;;9.62;100.00;99964.72;5163234;28;20395;-71
2023/04/11 05:37:20;;;;;;;3.33;0.80;;;;;;;9.20;100.00;99967.28;5160548;28;20029;-69
2023/04/11 05:39:51;;;;;;;1.45;0.63;;;;;;;8.97;100.00;99963.88;5158311;28;20022;-71
2023/04/11 05:42:21;;;;;;;2.08;0.68;;;;;;;8.76;100.00;99948.22;5160465;28;20564;-70
2023/04/11 05:44:52;;;;;;;4.28;0.55;;;;;;;8.74;100.00;99950.88;5162365;28;20026;-70
2023/04/11 05:47:22;;;;;;;5.20;0.65;;;;;;;8.67;100.00;99949.41;5158877;28;20189;-71
2023/04/11 05:49:52;;;;;;;1.95;0.80;;;;;;;8.83;100.00;99949.66;5159762;28;20667;-71
2023/04/11 05:52:23;;;;;;;4.32;0.70;;;;;;;8.72;100.00;99957.06;5157773;28;20027;-72
2023/04/11 05:54:53;;;;;;;3.85;0.73;;;;;;;8.60;100.00;99960.13;5167002;28;20477;-71
2023/04/11 05:57:23;;;;;;;6.40;1.10;;;;;;;8.72;100.00;99963.09;5164461;28;20083;-71
2023/04/11 05:59:53;;;;;;;4.50;0.80;;;;;;;8.76;100.00;99964.69;5156420;28;20060;-70
2023/04/11 06:02:24;;;;;;;3.83;1.33;;;;;;;8.79;100.00;99955.91;5163984;28;20116;-72
2023/04/11 06:04:54;;;;;;;2.47;0.77;;;;;;;8.78;100.00;99947.25;5164664;28;20487;-71
2023/04/11 06:07:26;;;;;;;4.85;0.80;;;;;;;8.74;100.00;99956.09;5157647;28;20437;-73
2023/04/11 06:09:56;;;;;;;5.22;1.00;;;;;;;8.87;100.00;99949.50;5163189;28;20034;-72
2023/04/11 06:12:27;;;;;;;2.80;0.77;;;;;;;9.01;100.00;99941.13;5158720;28;20153;-72
2023/04/11 06:14:58;;;;;;;6.63;0.77;;;;;;;8.93;100.00;99938.81;5167514;28;20607;-72
2023/04/11 06:17:28;;;;;;;4.82;1.00;;;;;;;8.94;100.00;99937.94;5139534;28;20126;-73
2023/04/11 06:19:58;;;;;;;4.32;0.90;;;;;;;9.30;100.00;99934.72;5161419;28;20034;-72
2023/04/11 06:22:28;;;;;;;1.40;0.70;;;;;;;9.35;100.00;99930.16;5165234;28;20057;-73
2023/04/11 06:24:59;;;;;;;5.60;0.77;;;;;;;9.59;100.00;99923.06;5159836;28;20061;-72
2023/04/11 06:27:29;;;;;;;4.43;0.77;;;;;;;9.83;100.00;99922.88;5159796;28;20040;-71
2023/04/11 06:30:00;;;;;;;4.38;0.80;;;;;;;9.90;100.00;99920.84;5167105;28;20065;-73
2023/04/11 06:32:30;;;;;;;3.13;0.95;;;;;;;10.02;100.00;99921.19;5138059;28;20030;-72
2023/04/11 06:35:00;;;;;;;3.63;0.95;;;;;;;10.36;100.00;99915.34;5161204;28;20403;-73
2023/04/11 06:37:31;;;;;;;5.10;0.85;;;;;;;10.50;100.00;99913.78;5158058;28;20319;-72
2023/04/11 06:40:04;;;;;;;1.70;0.88;;;;;;;10.34;100.00;99917.19;5148792;28;20026;-71
2023/04/11 06:42:34;;;;;;;2.13;1.00;;;;;;;10.63;99.92;99921.91;5164495;28;20109;-72
2023/04/11 06:45:05;;;;;;;5.05;1.45;;;;;;;10.80;98.21;99924.59;5174253;28;20446;-73
2023/04/11 06:47:35;;;;;;;6.07;1.40;;;;;;;11.82;94.84;99918.59;5164169;28;20030;-72
2023/04/11 06:50:06;;;;;;;2.47;1.08;;;;;;;14.42;82.16;99909.84;5159032;28;20066;-73
2023/04/11 06:52:37;;;;;;;4.20;1.20;;;;;;;15.08;75.55;99901.16;5163903;28;20495;-73
2023/04/11 06:55:08;;;;;;;6.57;1.23;;;;;;;16.58;74.12;99909.34;5157394;28;20030;-73
2023/04/11 06:57:39;;;;;;;4.50;1.23;;;;;;;16.33;70.18;99899.63;5161502;28;20023;-72
2023/04/11 07:00:11;;;;;;;4.80;1.40;;;;;;;15.64;72.30;99914.13;5152138;28;20041;-74
2023/04/11 07:02:43;;;;;;;5.93;1.50;;;;;;;14.69;74.42;99922.13;5172654;28;20053;-74
2023/04/11 07:05:14;;;;;;;5.18;1.80;;;;;;;13.13;80.53;99938.56;5166451;23;20123;-72
2023/04/11 07:07:44;;;;;;;5.93;1.30;;;;;;;12.59;82.22;99944.19;5162214;28;20046;-73
2023/04/11 07:10:14;;;;;;;4.50;1.20;;;;;;;11.62;86.44;99933.63;5159161;28;20587;-72
2023/04/11 07:12:44;;;;;;;2.80;1.00;;;;;;;11.52;88.04;99941.06;5171452;28;20342;-71
2023/04/11 07:15:15;;;;;;;1.55;0.57;;;;;;;10.83;88.90;99967.13;5149169;28;20038;-71
2023/04/11 07:17:47;;;;;;;3.22;0.80;;;;;;;10.59;93.53;99965.63;5148587;28;20089;-71
2023/04/11 07:20:17;;;;;;;2.92;0.80;;;;;;;10.02;98.33;99951.69;5148690;28;20026;-71
2023/04/11 07:22:47;;;;;;;4.18;0.90;;;;;;;10.06;97.47;99967.16;5150418;28;20041;-71
2023/04/11 07:25:21;;;;;;;7.85;1.30;;;;;;;10.15;99.33;100011.13;5147716;28;20031;-71
2023/04/11 07:27:51;;;;;;;2.05;0.85;;;;;;;9.72;100.00;100033.84;5149450;28;20025;-73
2023/04/11 07:30:22;;;;;;;1.77;0.73;;;;;;;8.76;100.00;100026.38;5140233;28;20019;-72
2023/04/11 07:32:52;;;;;;;2.08;0.68;;;;;;;8.14;100.00;100046.81;5147314;28;20473;-73
2023/04/11 07:35:23;;;;;;;0.73;0.40;;;;;;;7.90;100.00;100047.59;5146461;28;20042;-71
2023/04/11 07:37:53;;;;;;;1.45;0.75;;;;;;;7.89;100.00;100050.28;5143871;28;20117;-69
2023/04/11 07:40:23;;;;;;;2.17;0.60;;;;;;;7.85;100.00;100044.31;5147045;28;20492;-69
2023/04/11 07:42:54;;;;;;;0.93;0.40;;;;;;;7.81;100.00;100053.13;5148901;28;20385;-69
2023/04/11 07:45:24;;;;;;;1.65;0.73;;;;;;;7.78;100.00;100047.16;5148223;28;20049;-69
2023/04/11 07:47:54;;;;;;;0.70;0.30;;;;;;;7.61;100.00;100036.47;5145893;28;20041;-72
2023/04/11 07:50:25;;;;;;;0.70;0.30;;;;;;;7.60;100.00;100033.03;5148761;28;20493;-72
2023/04/11 07:52:55;;;;;;;2.00;0.60;;;;;;;7.61;100.00;100039.94;5143733;28;20037;-73
2023/04/11 07:55:26;;;;;;;0.60;0.40;;;;;;;7.59;100.00;100035.66;5137900;28;20505;-72
2023/04/11 07:57:56;;;;;;;0.57;0.38;;;;;;;7.70;100.00;100031.81;5141007;28;20031;-72
2023/04/11 08:00:27;;;;;;;1.38;0.47;;;;;;;7.87;100.00;100037.31;5146135;28;20160;-70
2023/04/11 08:03:01;;;;;;;1.80;0.45;;;;;;;8.28;100.00;100035.94;5146984;28;20057;-71
2023/04/11 08:05:33;;;;;;;1.33;0.50;;;;;;;8.60;100.00;100040.84;5143729;28;20053;-72
2023/04/11 08:08:05;;;;;;;1.65;0.50;;;;;;;8.75;100.00;100038.53;5145774;28;20026;-71
2023/04/11 08:10:35;;;;;;;2.28;1.10;;;;;;;8.84;100.00;100040.81;5146428;28;20030;-73
2023/04/11 08:13:05;;;;;;;4.60;0.63;;;;;;;9.18;100.00;100047.28;5145904;28;20440;-72
2023/04/11 08:15:37;;;;;;;3.92;0.57;;;;;;;9.42;100.00;100050.72;5145962;28;20069;-72
2023/04/11 08:18:07;;;;;;;3.05;0.60;;;;;;;9.44;100.00;100046.28;5144441;28;20500;-71
2023/04/11 08:20:39;;;;;;;2.63;0.73;;;;;;;9.69;100.00;100054.84;5146808;28;20033;-72
2023/04/11 08:23:10;;;;;;;1.23;0.52;;;;;;;9.58;100.00;100051.81;5144408;28;20027;-72
2023/04/11 08:25:40;;;;;;;1.48;0.50;;;;;;;9.94;100.00;100059.00;5144521;28;20018;-70
2023/04/11 08:28:11;;;;;;;5.80;1.00;;;;;;;10.15;100.00;100049.47;5143023;28;20091;-72
2023/04/11 08:30:41;;;;;;;1.77;0.90;;;;;;;10.33;100.00;100043.47;5140444;28;20073;-72
2023/04/11 08:33:11;;;;;;;2.55;1.00;;;;;;;10.75;100.00;100049.41;5144494;28;20078;-70
2023/04/11 08:35:42;;;;;;;2.50;0.90;;;;;;;11.11;98.59;100044.19;5149819;28;20019;-72
2023/04/11 08:38:12;;;;;;;2.53;0.70;;;;;;;11.64;95.79;100042.53;5143569;28;20066;-73
2023/04/11 08:40:42;;;;;;;2.90;0.68;;;;;;;12.05;91.00;100041.38;5149580;28;20558;-72
2023/04/11 08:43:13;;;;;;;1.60;0.75;;;;;;;12.50;89.66;100046.06;5143926;28;20039;-71
2023/04/11 08:45:43;;;;;;;3.33;0.77;;;;;;;12.80;88.25;100044.47;5137966;28;20033;-73
2023/04/11 08:48:13;;;;;;;2.35;0.80;;;;;;;13.31;84.22;100038.13;5143852;28;20215;-72
2023/04/11 08:50:44;;;;;;;2.17;0.93;;;;;;;13.24;84.35;100035.91;5149489;28;20445;-72
2023/04/11 08:53:16;;;;;;;2.17;0.65;;;;;;;13.39;85.04;100033.28;5138408;28;20485;-71
2023/04/11 08:55:47;;;;;;;2.50;1.00;;;;;;;12.51;89.41;100039.88;5144721;28;20036;-71
2023/04/11 08:58:18;;;;;;;2.85;0.73;;;;;;;12.84;86.20;100023.22;5139093;28;20489;-72
2023/04/11 09:00:48;;;;;;;3.22;0.73;;;;;;;13.89;81.05;100030.44;5147261;28;20022;-72
2023/04/11 09:03:19;;;;;;;3.40;0.70;;;;;;;13.33;79.98;100038.03;5139348;28;20077;-72
2023/04/11 09:05:49;;;;;;;2.05;0.70;;;;;;;15.08;77.66;100031.00;5147099;28;20026;-72
2023/04/11 09:08:20;;;;;;;2.72;0.70;;;;;;;16.22;72.72;100018.19;5144262;28;20078;-72
2023/04/11 09:10:50;;;;;;;2.58;0.60;;;;;;;16.51;70.95;100009.19;5146285;28;20120;-72
2023/04/11 09:13:26;;;;;;;1.85;0.80;;;;;;;15.65;72.24;100023.81;5139035;28;20035;-72
2023/04/11 09:16:13;;;;;;;3.17;0.80;;;;;;;15.30;72.84;100015.56;5141728;28;20564;-72
2023/04/11 09:18:47;;;;;;;0.88;0.40;;;;;;;14.88;74.31;100014.75;5136865;28;20376;-72
2023/04/11 09:21:18;;;;;;;2.85;0.70;;;;;;;14.75;76.37;100015.59;5140477;28;20051;-70
2023/04/11 09:23:48;;;;;;;4.85;0.80;;;;;;;14.64;75.71;100010.16;5135478;28;20027;-70
2023/04/11 09:26:28;;;;;;;1.17;0.50;;;;;;;13.76;76.68;100026.81;5141352;28;20426;-71
2023/04/11 09:28:59;;;;;;;2.05;0.50;;;;;;;13.60;78.90;100020.75;5139123;28;20289;-70
2023/04/11 09:31:44;;;;;;;1.33;0.50;;;;;;;13.29;79.28;100032.13;5143902;28;20023;-71
2023/04/11 09:34:22;;;;;;;2.40;0.65;;;;;;;12.78;78.47;100027.97;5141517;28;20121;-72
2023/04/11 09:36:54;;;;;;;2.70;0.70;;;;;;;12.80;80.51;100033.97;5141083;28;20030;-71
2023/04/11 09:39:27;;;;;;;5.43;0.90;;;;;;;13.33;79.96;100023.13;5140011;28;20431;-72
2023/04/11 09:41:57;;;;;;;1.80;0.50;;;;;;;13.50;78.69;100016.94;5139530;28;20034;-72
2023/04/11 09:44:37;;;;;;;2.15;0.68;;;;;;;13.37;77.96;100015.94;5143294;28;20033;-73
2023/04/11 09:47:08;;;;;;;2.78;1.10;;;;;;;13.51;78.76;100019.47;5141257;28;20030;-70
2023/04/11 09:49:39;;;;;;;2.88;1.08;;;;;;;13.28;79.28;100019.06;5142968;28;20034;-71
2023/04/11 09:52:10;;;;;;;2.15;0.75;;;;;;;13.00;80.02;100030.22;5142877;28;20122;-71
2023/04/11 09:54:40;;;;;;;4.50;0.80;;;;;;;13.30;78.92;100022.44;5146621;28;20434;-71
2023/04/11 09:57:11;;;;;;;1.60;0.70;;;;;;;13.28;77.18;100025.19;5143787;28;20391;-72
2023/04/11 09:59:43;;;;;;;3.97;0.77;;;;;;;13.66;79.47;100020.38;5139074;28;20030;-72
2023/04/11 10:02:13;;;;;;;3.75;0.80;;;;;;;13.59;78.04;100026.91;5132436;28;20648;-73
2023/04/11 10:04:43;;;;;;;1.10;0.55;;;;;;;13.75;77.10;100012.00;5141297;28;20116;-72
2023/04/11 10:07:15;;;;;;;2.95;0.90;;;;;;;13.71;77.39;100013.09;5138194;28;20280;-69
2023/04/11 10:09:46;;;;;;;4.13;0.85;;;;;;;13.64;74.38;100004.72;5145611;28;20479;-72
2023/04/11 10:12:32;;;;;;;2.95;0.88;;;;;;;13.78;76.31;99996.06;5137595;28;20023;-72
2023/04/11 10:15:07;;;;;;;;;;;;;;;13.87;76.22;100011.25;5146718;28;20150;-71
2023/04/11 10:17:39;;;;;;;3.10;0.88;;;;;;;13.62;75.57;100013.63;5142628;28;19957;-69
2023/04/11 10:20:35;;;;;;;2.15;0.80;;;;;;;13.60;73.77;100004.97;5137931;28;20030;-70
2023/04/11 10:23:06;;;;;;;6.00;1.07;;;;;;;13.56;74.68;100024.47;5144932;28;20089;-71
2023/04/11 10:26:07;;;;;;;9.20;1.33;;;;;;;13.35;75.30;100015.16;5148907;28;20038;-71
2023/04/11 10:28:38;;;;;;;4.28;1.23;;;;;;;13.54;74.65;100016.69;5147304;28;20045;-71
2023/04/11 10:31:15;;;;;;;5.03;0.70;;;;;;;13.63;73.53;100024.06;5138496;28;20441;-70
2023/04/11 10:34:14;;;;;;;3.17;1.05;;;;;;;13.62;74.47;100021.50;5138240;28;20023;-71
2023/04/11 10:37:05;;;;;;;5.55;2.22;;;;;;;13.44;72.64;100018.09;5140350;28;20023;-70
2023/04/11 10:39:50;;;;;;;2.67;0.75;;;;;;;13.38;70.12;100033.38;5136178;28;20034;-71
2023/04/11 10:42:33;;;;;;;3.92;0.98;;;;;;;13.15;70.38;100029.41;5137052;28;20034;-70
2023/04/11 10:45:23;;;;;;;5.22;1.40;;;;;;;13.40;72.76;100042.00;5136616;28;20181;-69
2023/04/11 10:48:10;;;;;;;4.25;0.98;;;;;;;13.26;72.69;100031.44;5136786;28;20488;-71
2023/04/11 10:50:44;;;;;;;7.78;3.45;;;;;;;12.78;72.52;100060.25;5141125;28;20398;-70
2023/04/11 10:53:35;;;;;;;7.05;1.80;;;;;;;11.85;79.93;100099.13;5139096;28;20207;-71
2023/04/11 10:56:06;;;;;;;7.57;2.63;;;;;;;11.31;89.04;100101.66;5137301;28;20018;-72
2023/04/11 10:58:38;;;;;;;5.57;1.92;;;;;;;10.97;90.32;100097.19;5141033;28;20045;-72
2023/04/11 11:01:16;;;;;;;7.65;2.00;;;;;;;10.78;91.20;100093.69;5139129;28;20034;-71
2023/04/11 11:03:51;;;;;;;3.65;1.40;;;;;;;11.08;90.85;100083.56;5139106;28;20026;-72
2023/04/11 11:06:23;;;;;;;4.03;1.27;;;;;;;11.31;90.08;100093.81;5141155;28;20476;-71
2023/04/11 11:08:53;;;;;;;4.22;1.38;;;;;;;11.51;88.98;100083.31;5135781;28;20023;-71
2023/04/11 11:11:24;;;;;;;2.13;0.90;;;;;;;11.74;86.92;100088.31;5139030;28;20034;-70
2023/04/11 11:13:54;;;;;;;3.70;0.70;;;;;;;12.11;84.67;100075.13;5138721;28;20022;-71
2023/04/11 11:16:25;;;;;;;7.40;1.30;;;;;;;12.38;84.62;100067.63;5137283;28;20027;-71
2023/04/11 11:18:58;;;;;;;2.50;1.00;;;;;;;12.78;84.50;100069.91;5139411;28;20057;-68
2023/04/11 11:21:33;;;;;;;5.05;1.40;;;;;;;12.94;79.72;100058.56;5133636;28;20179;-70
2023/04/11 11:24:04;;;;;;;6.43;0.80;;;;;;;12.97;78.36;100063.63;5136390;28;20037;-69
2023/04/11 11:26:43;;;;;;;5.40;0.70;;;;;;;13.18;76.35;100071.22;5141655;28;20022;-71
2023/04/11 11:29:13;;;;;;;3.03;0.80;;;;;;;12.97;72.72;100078.53;5140820;28;20031;-71
2023/04/11 11:31:45;;;;;;;2.30;0.65;;;;;;;13.02;73.90;100083.44;5140633;28;20059;-71
2023/04/11 11:34:26;;;;;;;4.15;0.85;;;;;;;12.90;73.64;100078.81;5141984;28;20492;-72
2023/04/11 11:36:57;;;;;;;3.42;0.68;;;;;;;12.83;74.14;100081.00;5139453;28;20098;-69
2023/04/11 11:39:29;;;;;;;4.68;0.77;;;;;;;12.64;74.60;100086.34;5142923;28;20551;-70
2023/04/11 11:42:00;;;;;;;3.80;1.17;;;;;;;12.71;73.20;100086.88;5145371;28;20030;-70
2023/04/11 11:44:31;;;;;;;4.30;1.10;;;;;;;13.10;73.98;100081.25;5139067;28;20041;-71
2023/04/11 11:47:11;;;;;;;2.03;0.70;;;;;;;13.03;72.05;100086.94;5140444;28;20487;-72
2023/04/11 11:49:53;;;;;;;2.67;0.80;;;;;;;12.83;71.65;100092.31;5148797;28;20029;-72